Time;durP1;ratioP1;P1;durP2;ratioP2;P2;SDS_P1;SDS_P2;PMS_P1;PMS_P2;Temp;Humidity;BMP_temperature;BMP_pressure;BME280_temperature;BME280_humidity;BME280_pressure;Samples;Min_cycle;Max_cycle;Signal;HPM_P1;HPM_P2
2022/07/02 00:00:55;;;;;;;1.47;1.43;;;;;;;;;;5099307;28;20254;-82
2022/07/02 00:03:25;;;;;;;1.67;1.60;;;;;;;;;;5098175;28;20205;-82
2022/07/02 00:05:56;;;;;;;3.33;1.40;;;;;;;;;;5106995;28;20201;-82
2022/07/02 00:08:24;;;;;;;1.67;1.43;;;;;;;;;;5101166;28;20211;-81
2022/07/02 00:10:51;;;;;;;2.43;1.57;;;;;;;;;;5101338;28;20224;-82
2022/07/02 00:13:19;;;;;;;2.50;1.53;;;;;;;;;;5100595;28;20217;-82
2022/07/02 00:15:46;;;;;;;1.60;1.60;;;;;;;;;;5100238;28;20251;-81
2022/07/02 00:18:14;;;;;;;1.60;1.57;;;;;;;;;;5099506;28;20734;-82
2022/07/02 00:20:43;;;;;;;2.37;1.50;;;;;;;;;;5099210;28;20208;-82
2022/07/02 00:23:10;;;;;;;1.53;1.43;;;;;;;;;;5099323;28;20266;-82
2022/07/02 00:25:39;;;;;;;2.03;1.67;;;;;;;;;;5098701;28;20244;-82
2022/07/02 00:28:07;;;;;;;1.40;1.40;;;;;;;;;;5098821;28;20750;-82
2022/07/02 00:30:34;;;;;;;1.50;1.40;;;;;;;;;;5098380;28;20232;-82
2022/07/02 00:33:02;;;;;;;3.30;1.60;;;;;;;;;;5099548;28;20208;-81
2022/07/02 00:35:30;;;;;;;1.70;1.60;;;;;;;;;;5108062;28;20260;-82
2022/07/02 00:37:58;;;;;;;2.00;1.80;;;;;;;;;;5093233;28;20559;-82
2022/07/02 00:40:26;;;;;;;1.77;1.60;;;;;;;;;;5092607;28;20228;-82
2022/07/02 00:42:53;;;;;;;1.67;1.57;;;;;;;;;;5093497;28;20215;-81
2022/07/02 00:45:20;;;;;;;1.43;1.40;;;;;;;;;;5092649;28;20236;-81
2022/07/02 00:47:48;;;;;;;1.57;1.47;;;;;;;;;;5093570;28;20233;-81
2022/07/02 00:50:15;;;;;;;1.50;1.40;;;;;;;;;;5093991;28;20756;-81
2022/07/02 00:52:43;;;;;;;1.50;1.40;;;;;;;;;;5094675;28;20211;-82
2022/07/02 00:55:10;;;;;;;1.77;1.60;;;;;;;;;;5093532;28;20232;-82
2022/07/02 00:57:37;;;;;;;2.90;1.50;;;;;;;;;;5089733;28;20251;-82
2022/07/02 01:00:05;;;;;;;1.50;1.40;;;;;;;;;;5093887;28;20228;-82
2022/07/02 01:02:32;;;;;;;1.60;1.50;;;;;;;;;;5095176;28;20208;-81
2022/07/02 01:05:00;;;;;;;2.40;1.40;;;;;;;;;;5092479;28;20239;-82
2022/07/02 01:07:27;;;;;;;1.60;1.50;;;;;;;;;;5094165;28;20233;-82
2022/07/02 01:12:42;;;;;;;1.60;1.50;;;;;;;;;;5094051;28;20207;-82
2022/07/02 01:15:09;;;;;;;1.50;1.40;;;;;;;;;;5094239;28;20233;-82
2022/07/02 01:17:36;;;;;;;2.53;1.70;;;;;;;;;;5095371;28;20251;-82
2022/07/02 01:20:04;;;;;;;7.17;1.77;;;;;;;;;;5094023;28;20236;-82
2022/07/02 01:22:35;;;;;;;2.63;1.30;;;;;;;;;;5094696;28;20209;-82
2022/07/02 01:25:02;;;;;;;4.00;1.90;;;;;;;;;;5093567;28;20228;-82
2022/07/02 01:27:29;;;;;;;1.57;1.47;;;;;;;;;;5094263;28;20244;-82
2022/07/02 01:29:56;;;;;;;1.60;1.50;;;;;;;;;;5094288;28;20232;-82
2022/07/02 01:32:23;;;;;;;1.70;1.60;;;;;;;;;;5105254;28;20311;-82
2022/07/02 01:34:52;;;;;;;1.47;1.40;;;;;;;;;;5099168;28;20240;-82
2022/07/02 01:37:20;;;;;;;1.60;1.50;;;;;;;;;;5098902;28;20231;-81
2022/07/02 01:39:48;;;;;;;1.20;1.20;;;;;;;;;;5098355;28;20243;-81
2022/07/02 01:42:16;;;;;;;1.40;1.40;;;;;;;;;;5099506;28;20547;-82
2022/07/02 01:44:43;;;;;;;1.40;1.30;;;;;;;;;;5097824;28;20722;-82
2022/07/02 01:47:11;;;;;;;1.50;1.40;;;;;;;;;;5098981;28;20235;-82
2022/07/02 01:49:39;;;;;;;1.60;1.50;;;;;;;;;;5098044;28;20277;-81
2022/07/02 01:52:06;;;;;;;3.23;1.70;;;;;;;;;;5102094;28;20225;-81
2022/07/02 01:54:34;;;;;;;1.70;1.60;;;;;;;;;;5101689;28;20275;-81
2022/07/02 01:57:02;;;;;;;3.20;1.83;;;;;;;;;;5102696;28;20235;-81
2022/07/02 01:59:30;;;;;;;2.47;1.50;;;;;;;;;;5103522;28;20734;-82
2022/07/02 02:01:57;;;;;;;1.90;1.60;;;;;;;;;;5104542;28;20208;-82
2022/07/02 02:04:24;;;;;;;1.83;1.73;;;;;;;;;;5102250;28;20243;-82
2022/07/02 02:06:51;;;;;;;2.17;1.70;;;;;;;;;;5106382;28;20224;-82
2022/07/02 02:09:19;;;;;;;3.33;2.13;;;;;;;;;;5102960;28;20239;-82
2022/07/02 02:11:46;;;;;;;2.23;1.70;;;;;;;;;;5103227;28;20220;-82
2022/07/02 02:14:16;;;;;;;1.70;1.60;;;;;;;;;;5104006;28;20236;-82
2022/07/02 02:16:43;;;;;;;1.60;1.50;;;;;;;;;;5103286;28;20262;-82
2022/07/02 02:19:10;;;;;;;4.10;1.60;;;;;;;;;;5103391;28;20258;-81
2022/07/02 02:21:37;;;;;;;3.17;1.30;;;;;;;;;;5104478;28;20664;-81
2022/07/02 02:24:05;;;;;;;2.20;1.70;;;;;;;;;;5106034;28;20243;-82
2022/07/02 02:26:32;;;;;;;1.53;1.43;;;;;;;;;;5104760;28;20227;-81
2022/07/02 02:28:59;;;;;;;1.77;1.67;;;;;;;;;;5101629;28;20823;-82
2022/07/02 02:31:28;;;;;;;3.70;1.80;;;;;;;;;;5102324;28;20255;-81
2022/07/02 02:33:55;;;;;;;1.93;1.80;;;;;;;;;;5102176;28;20244;-82
2022/07/02 02:36:22;;;;;;;2.20;1.80;;;;;;;;;;5102192;28;20224;-81
2022/07/02 02:38:49;;;;;;;1.90;1.80;;;;;;;;;;5102691;28;20618;-82
2022/07/02 02:41:16;;;;;;;2.60;1.73;;;;;;;;;;5101339;28;20665;-82
2022/07/02 02:43:43;;;;;;;1.90;1.80;;;;;;;;;;5101156;28;20232;-82
2022/07/02 02:46:10;;;;;;;1.70;1.60;;;;;;;;;;5101851;28;20244;-81
2022/07/02 02:48:39;;;;;;;5.17;2.10;;;;;;;;;;5101310;28;20236;-82
2022/07/02 02:51:07;;;;;;;1.90;1.80;;;;;;;;;;5101572;28;20224;-82
2022/07/02 02:53:35;;;;;;;1.87;1.77;;;;;;;;;;5101125;28;20228;-82
2022/07/02 02:56:02;;;;;;;1.97;1.77;;;;;;;;;;5101634;28;20570;-82
2022/07/02 02:58:29;;;;;;;2.07;1.83;;;;;;;;;;5100798;28;20665;-82
2022/07/02 03:00:56;;;;;;;1.77;1.70;;;;;;;;;;5103967;28;20204;-82
2022/07/02 03:03:23;;;;;;;1.93;1.83;;;;;;;;;;5102931;28;20197;-81
2022/07/02 03:05:52;;;;;;;2.03;1.93;;;;;;;;;;5102278;28;20216;-82
2022/07/02 03:08:19;;;;;;;1.57;1.50;;;;;;;;;;5093668;22;20324;-84
2022/07/02 03:10:47;;;;;;;2.37;1.70;;;;;;;;;;5045898;28;20209;-84
2022/07/02 03:13:14;;;;;;;1.60;1.40;;;;;;;;;;5053344;28;20238;-84
2022/07/02 03:15:41;;;;;;;2.77;1.90;;;;;;;;;;5053837;28;20241;-84
2022/07/02 03:18:08;;;;;;;1.90;1.80;;;;;;;;;;5053897;28;20284;-84
2022/07/02 03:20:35;;;;;;;1.83;1.73;;;;;;;;;;5073342;28;20249;-83
2022/07/02 03:23:04;;;;;;;1.80;1.70;;;;;;;;;;5073096;28;20204;-84
2022/07/02 03:25:31;;;;;;;2.33;2.00;;;;;;;;;;5073226;28;20229;-84
2022/07/02 03:27:58;;;;;;;3.33;1.80;;;;;;;;;;5074023;28;20229;-84
2022/07/02 03:30:25;;;;;;;2.30;1.83;;;;;;;;;;5073311;28;20245;-84
2022/07/02 03:32:52;;;;;;;1.83;1.73;;;;;;;;;;5073559;28;20257;-84
2022/07/02 03:35:19;;;;;;;6.83;1.97;;;;;;;;;;5073109;28;20735;-84
2022/07/02 03:37:47;;;;;;;4.37;1.90;;;;;;;;;;5073734;28;20225;-84
2022/07/02 03:40:15;;;;;;;1.90;1.80;;;;;;;;;;5073159;28;20244;-84
2022/07/02 03:42:42;;;;;;;3.60;1.73;;;;;;;;;;5073835;28;20197;-84
2022/07/02 03:45:09;;;;;;;1.93;1.83;;;;;;;;;;5073020;28;20830;-84
2022/07/02 03:47:36;;;;;;;2.27;1.80;;;;;;;;;;5073851;28;20232;-84
2022/07/02 03:50:04;;;;;;;2.50;1.83;;;;;;;;;;5073016;28;20287;-84
2022/07/02 03:52:31;;;;;;;2.10;2.00;;;;;;;;;;5073479;28;20232;-84
2022/07/02 03:54:58;;;;;;;2.13;1.90;;;;;;;;;;5072682;28;20233;-84
2022/07/02 03:57:26;;;;;;;4.63;2.00;;;;;;;;;;5073474;28;20229;-84
2022/07/02 03:59:53;;;;;;;1.70;1.60;;;;;;;;;;5072766;28;20237;-84
2022/07/02 04:02:21;;;;;;;2.27;1.70;;;;;;;;;;5073384;28;20205;-85
2022/07/02 04:04:48;;;;;;;2.87;2.67;;;;;;;;;;5072636;28;20678;-84
2022/07/02 04:07:15;;;;;;;1.97;1.80;;;;;;;;;;5073185;28;20241;-85
2022/07/02 04:09:42;;;;;;;4.67;1.70;;;;;;;;;;5072782;28;20241;-85
2022/07/02 04:12:09;;;;;;;2.00;1.90;;;;;;;;;;5072649;28;20270;-85
2022/07/02 04:14:38;;;;;;;2.50;1.60;;;;;;;;;;5071906;28;20765;-85
2022/07/02 04:17:06;;;;;;;1.90;1.80;;;;;;;;;;5073162;28;20260;-85
2022/07/02 04:19:33;;;;;;;5.00;1.97;;;;;;;;;;5072733;28;20268;-85
2022/07/02 04:22:01;;;;;;;1.87;1.77;;;;;;;;;;5073928;28;20209;-85
2022/07/02 04:24:28;;;;;;;2.30;2.20;;;;;;;;;;5073482;28;20229;-85
2022/07/02 04:26:55;;;;;;;2.00;1.90;;;;;;;;;;5073760;28;20236;-85
2022/07/02 04:29:22;;;;;;;2.33;2.23;;;;;;;;;;5072301;28;20639;-85
2022/07/02 04:31:50;;;;;;;2.47;2.03;;;;;;;;;;5072492;28;20225;-85
2022/07/02 04:34:17;;;;;;;1.90;1.80;;;;;;;;;;5072158;28;20259;-85
2022/07/02 04:36:45;;;;;;;4.43;2.40;;;;;;;;;;5072719;28;20622;-85
2022/07/02 04:39:12;;;;;;;5.20;2.20;;;;;;;;;;5072266;28;20237;-85
2022/07/02 04:41:39;;;;;;;2.70;2.50;;;;;;;;;;5072461;28;20208;-85
2022/07/02 04:44:06;;;;;;;4.63;2.27;;;;;;;;;;5072881;28;20233;-85
2022/07/02 04:46:33;;;;;;;2.50;2.20;;;;;;;;;;5074121;28;20235;-85
2022/07/02 04:49:01;;;;;;;2.57;2.20;;;;;;;;;;5076091;28;20237;-85
2022/07/02 04:51:28;;;;;;;2.30;2.20;;;;;;;;;;5080784;28;20205;-85
2022/07/02 04:53:55;;;;;;;2.73;2.53;;;;;;;;;;5076688;28;20237;-85
2022/07/02 04:56:24;;;;;;;3.03;2.70;;;;;;;;;;5072528;28;20201;-85
2022/07/02 04:58:51;;;;;;;2.47;2.27;;;;;;;;;;5072179;28;20228;-85
2022/07/02 05:01:18;;;;;;;2.90;2.70;;;;;;;;;;5072567;28;20205;-85
2022/07/02 05:03:45;;;;;;;5.07;2.90;;;;;;;;;;5071901;28;20290;-85
2022/07/02 05:06:14;;;;;;;2.97;2.70;;;;;;;;;;5072594;28;20202;-85
2022/07/02 05:08:41;;;;;;;2.60;2.40;;;;;;;;;;5071819;28;20236;-84
2022/07/02 05:11:08;;;;;;;2.53;2.40;;;;;;;;;;5072943;28;20619;-85
2022/07/02 05:13:35;;;;;;;3.03;2.53;;;;;;;;;;5072183;28;20244;-84
2022/07/02 05:16:02;;;;;;;2.50;2.40;;;;;;;;;;5073265;28;20201;-85
2022/07/02 05:18:29;;;;;;;4.17;2.80;;;;;;;;;;5073550;28;20225;-83
2022/07/02 05:20:56;;;;;;;7.77;2.70;;;;;;;;;;5072875;28;20227;-84
2022/07/02 05:23:24;;;;;;;6.77;3.17;;;;;;;;;;5071886;28;20685;-84
2022/07/02 05:25:51;;;;;;;4.00;2.87;;;;;;;;;;5072987;28;20202;-84
2022/07/02 05:28:18;;;;;;;6.03;2.50;;;;;;;;;;5072792;28;20221;-84
2022/07/02 05:30:45;;;;;;;3.80;2.70;;;;;;;;;;5072198;28;20575;-84
2022/07/02 05:33:13;;;;;;;2.97;2.77;;;;;;;;;;5071983;28;20221;-84
2022/07/02 05:35:40;;;;;;;2.63;2.43;;;;;;;;;;5072734;28;20205;-84
2022/07/02 05:38:07;;;;;;;2.63;2.43;;;;;;;;;;5073491;28;20225;-85
2022/07/02 05:40:35;;;;;;;2.90;2.70;;;;;;;;;;5072126;28;20256;-84
2022/07/02 05:43:02;;;;;;;2.77;2.57;;;;;;;;;;5073332;28;20201;-84
2022/07/02 05:45:29;;;;;;;2.97;2.70;;;;;;;;;;5072157;28;20237;-84
2022/07/02 05:47:57;;;;;;;3.20;2.73;;;;;;;;;;5072603;28;20225;-84
2022/07/02 05:50:24;;;;;;;3.37;2.70;;;;;;;;;;5071628;28;20731;-84
2022/07/02 05:52:51;;;;;;;4.03;2.67;;;;;;;;;;5071968;28;20228;-83
2022/07/02 05:55:18;;;;;;;7.30;2.63;;;;;;;;;;5077805;28;20236;-84
2022/07/02 05:57:46;;;;;;;4.10;2.90;;;;;;;;;;5072299;28;20233;-83
2022/07/02 06:00:13;;;;;;;2.47;2.30;;;;;;;;;;5071828;28;20233;-83
2022/07/02 06:02:41;;;;;;;2.50;2.30;;;;;;;;;;5072528;28;20208;-83
2022/07/02 06:07:49;;;;;;;2.80;2.47;;;;;;;;;;5072335;28;20260;-85
2022/07/02 06:10:18;;;;;;;3.80;2.10;;;;;;;;;;5071059;28;20237;-85
2022/07/02 06:12:47;;;;;;;3.10;2.60;;;;;;;;;;5071462;28;20225;-85
2022/07/02 06:15:14;;;;;;;3.10;2.20;;;;;;;;;;5076527;28;20259;-85
2022/07/02 06:17:41;;;;;;;2.40;2.20;;;;;;;;;;5089617;28;20229;-83
2022/07/02 06:20:09;;;;;;;3.87;2.40;;;;;;;;;;5088403;28;20301;-81
2022/07/02 06:22:38;;;;;;;3.60;2.07;;;;;;;;;;5088103;28;20205;-83
2022/07/02 06:25:05;;;;;;;2.40;2.20;;;;;;;;;;5077925;28;20708;-84
2022/07/02 06:27:34;;;;;;;3.20;1.97;;;;;;;;;;5071578;28;20229;-85
2022/07/02 06:30:02;;;;;;;2.50;1.87;;;;;;;;;;5070802;28;20233;-85
2022/07/02 06:32:30;;;;;;;2.63;1.87;;;;;;;;;;5071937;28;20221;-86
2022/07/02 06:34:57;;;;;;;1.67;1.57;;;;;;;;;;5071236;28;20253;-84
2022/07/02 06:37:24;;;;;;;1.67;1.57;;;;;;;;;;5074109;28;20226;-84
2022/07/02 06:39:51;;;;;;;1.60;1.50;;;;;;;;;;5074172;28;20241;-84
2022/07/02 06:42:22;;;;;;;1.50;1.40;;;;;;;;;;5074824;28;20229;-85
2022/07/02 06:44:50;;;;;;;1.55;1.45;;;;;;;;;;5076904;28;20245;-85
2022/07/02 06:47:19;;;;;;;4.05;1.63;;;;;;;;;;5077056;28;20290;-84
2022/07/02 06:49:47;;;;;;;1.40;1.30;;;;;;;;;;5076614;28;20271;-85
2022/07/02 06:52:14;;;;;;;1.60;1.50;;;;;;;;;;5076082;28;20236;-85
2022/07/02 06:54:42;;;;;;;1.77;1.15;;;;;;;;;;5074003;28;20302;-85
2022/07/02 06:57:09;;;;;;;1.52;1.38;;;;;;;;;;5074799;28;20236;-85
2022/07/02 06:59:36;;;;;;;0.95;0.95;;;;;;;;;;5074786;28;20244;-85
2022/07/02 07:02:03;;;;;;;2.35;1.20;;;;;;;;;;5075627;28;20256;-85
2022/07/02 07:04:32;;;;;;;4.95;1.25;;;;;;;;;;5074942;28;20233;-85
2022/07/02 07:07:03;;;;;;;2.97;1.15;;;;;;;;;;5074634;28;20622;-85
2022/07/02 07:09:30;;;;;;;1.60;1.20;;;;;;;;;;5075456;28;20245;-85
2022/07/02 07:11:57;;;;;;;0.88;0.88;;;;;;;;;;5075127;28;20697;-85
2022/07/02 07:14:24;;;;;;;0.80;0.80;;;;;;;;;;5074916;28;20232;-85
2022/07/02 07:16:52;;;;;;;1.67;0.77;;;;;;;;;;5075230;28;20232;-85
2022/07/02 07:19:19;;;;;;;2.03;0.82;;;;;;;;;;5074770;28;20638;-85
2022/07/02 07:21:47;;;;;;;1.42;1.00;;;;;;;;;;5075457;28;20209;-84
2022/07/02 07:24:14;;;;;;;0.77;0.77;;;;;;;;;;5074614;28;20235;-85
2022/07/02 07:26:41;;;;;;;3.38;1.02;;;;;;;;;;5075630;28;20216;-85
2022/07/02 07:29:08;;;;;;;2.45;1.08;;;;;;;;;;5075077;28;20294;-85
2022/07/02 07:31:36;;;;;;;1.48;1.05;;;;;;;;;;5075599;28;20578;-85
2022/07/02 07:34:03;;;;;;;1.15;0.90;;;;;;;;;;5074146;28;20243;-85
2022/07/02 07:36:30;;;;;;;0.80;0.80;;;;;;;;;;5074333;28;20205;-85
2022/07/02 07:38:59;;;;;;;1.80;0.65;;;;;;;;;;5073850;28;20237;-85
2022/07/02 07:41:27;;;;;;;0.93;0.82;;;;;;;;;;5074312;28;20235;-84
2022/07/02 07:43:54;;;;;;;2.92;0.85;;;;;;;;;;5073827;28;20247;-85
2022/07/02 07:46:21;;;;;;;0.70;0.70;;;;;;;;;;5073912;28;20197;-85
2022/07/02 07:48:48;;;;;;;0.70;0.70;;;;;;;;;;5073493;28;20237;-85
2022/07/02 07:51:15;;;;;;;0.77;0.77;;;;;;;;;;5074067;28;20212;-85
2022/07/02 07:53:43;;;;;;;2.03;0.80;;;;;;;;;;5073269;28;20265;-85
2022/07/02 07:56:12;;;;;;;1.10;0.70;;;;;;;;;;5073616;28;20661;-84
2022/07/02 07:58:39;;;;;;;0.82;0.82;;;;;;;;;;5072961;28;20244;-84
2022/07/02 08:01:06;;;;;;;1.30;0.88;;;;;;;;;;5062006;28;20205;-84
2022/07/02 08:03:33;;;;;;;0.73;0.73;;;;;;;;;;5053396;28;20233;-85
2022/07/02 08:06:00;;;;;;;0.85;0.70;;;;;;;;;;5057231;28;20216;-85
2022/07/02 08:08:28;;;;;;;2.47;1.00;;;;;;;;;;5053097;28;20649;-85
2022/07/02 08:10:55;;;;;;;1.73;0.98;;;;;;;;;;5053729;28;20576;-85
2022/07/02 08:13:23;;;;;;;1.90;0.98;;;;;;;;;;5054199;28;20234;-83
2022/07/02 08:15:50;;;;;;;0.73;0.73;;;;;;;;;;5055180;28;20218;-84
2022/07/02 08:18:17;;;;;;;1.95;0.60;;;;;;;;;;5053227;28;20233;-84
2022/07/02 08:20:44;;;;;;;0.90;0.70;;;;;;;;;;5053104;28;20217;-85
2022/07/02 08:23:11;;;;;;;0.80;0.60;;;;;;;;;;5052549;28;20202;-85
2022/07/02 08:25:38;;;;;;;4.13;1.30;;;;;;;;;;5053547;28;20259;-85
2022/07/02 08:28:05;;;;;;;3.00;0.85;;;;;;;;;;5053379;28;20710;-85
2022/07/02 08:30:34;;;;;;;0.93;0.90;;;;;;;;;;5053104;28;20242;-85
2022/07/02 08:33:01;;;;;;;2.25;1.48;;;;;;;;;;5054500;28;20225;-85
2022/07/02 08:35:28;;;;;;;0.70;0.70;;;;;;;;;;5055251;28;20260;-85
2022/07/02 08:37:58;;;;;;;0.98;0.77;;;;;;;;;;5058282;28;20264;-85
2022/07/02 08:40:26;;;;;;;1.95;0.63;;;;;;;;;;5055556;28;20241;-86
2022/07/02 08:42:55;;;;;;;0.60;0.60;;;;;;;;;;5053450;28;20202;-86
2022/07/02 08:45:23;;;;;;;2.45;0.68;;;;;;;;;;5051978;28;20236;-85
2022/07/02 08:47:53;;;;;;;0.73;0.73;;;;;;;;;;5052681;28;20222;-86
2022/07/02 08:50:21;;;;;;;0.60;0.60;;;;;;;;;;5052551;28;20257;-85
2022/07/02 08:52:49;;;;;;;1.75;0.60;;;;;;;;;;5052730;28;20266;-85
2022/07/02 08:55:16;;;;;;;2.63;0.65;;;;;;;;;;5052238;28;20241;-86
2022/07/02 08:57:44;;;;;;;0.82;0.70;;;;;;;;;;5052672;28;20226;-84
2022/07/02 09:00:12;;;;;;;0.93;0.57;;;;;;;;;;5055684;28;20283;-85
2022/07/02 09:02:40;;;;;;;1.13;0.65;;;;;;;;;;5072415;28;20213;-85
2022/07/02 09:05:10;;;;;;;1.35;1.00;;;;;;;;;;5071712;28;20232;-83
2022/07/02 09:07:38;;;;;;;1.50;0.57;;;;;;;;;;5085013;22;20268;-82
2022/07/02 09:10:06;;;;;;;1.85;0.60;;;;;;;;;;5044673;28;20234;-82
2022/07/02 09:12:33;;;;;;;1.63;0.80;;;;;;;;;;5055484;28;20198;-80
2022/07/02 09:15:00;;;;;;;0.45;0.45;;;;;;;;;;5057690;28;20237;-80
2022/07/02 09:17:27;;;;;;;1.05;0.60;;;;;;;;;;5058548;28;20255;-80
2022/07/02 09:19:54;;;;;;;0.60;0.60;;;;;;;;;;5058333;28;20241;-80
2022/07/02 09:22:31;;;;;;;0.90;0.50;;;;;;;;;;5059485;28;20206;-80
2022/07/02 09:25:07;;;;;;;0.50;0.50;;;;;;;;;;5058441;28;20257;-80
2022/07/02 09:27:34;;;;;;;1.17;0.95;;;;;;;;;;5057557;28;20201;-80
2022/07/02 09:30:01;;;;;;;0.88;0.50;;;;;;;;;;5057908;28;20230;-80
2022/07/02 09:32:28;;;;;;;1.50;0.57;;;;;;;;;;5058790;28;20222;-79
2022/07/02 09:34:55;;;;;;;2.70;0.60;;;;;;;;;;5054083;28;20265;-81
2022/07/02 09:37:24;;;;;;;0.82;0.50;;;;;;;;;;5055553;28;20205;-81
2022/07/02 09:39:52;;;;;;;3.72;0.77;;;;;;;;;;5057244;28;20950;-83
2022/07/02 09:42:26;;;;;;;0.77;0.75;;;;;;;;;;5058499;28;20206;-82
2022/07/02 09:44:53;;;;;;;0.85;0.73;;;;;;;;;;5056145;28;20261;-82
2022/07/02 09:47:31;;;;;;;2.30;0.80;;;;;;;;;;5061053;28;20202;-82
2022/07/02 09:49:58;;;;;;;1.33;0.75;;;;;;;;;;5058525;28;20237;-82
2022/07/02 09:52:26;;;;;;;1.23;0.98;;;;;;;;;;5057901;28;20210;-82
2022/07/02 09:54:53;;;;;;;2.00;0.60;;;;;;;;;;5053293;28;20241;-82
2022/07/02 09:57:20;;;;;;;0.73;0.70;;;;;;;;;;5053645;28;20206;-82
2022/07/02 09:59:47;;;;;;;1.00;0.50;;;;;;;;;;5054738;28;20241;-82
2022/07/02 10:02:22;;;;;;;0.57;0.45;;;;;;;;;;5035534;28;20214;-82
2022/07/02 10:04:51;;;;;;;3.38;0.52;;;;;;;;;;5034079;28;20775;-82
2022/07/02 10:07:18;;;;;;;0.88;0.70;;;;;;;;;;5034539;28;20309;-82
2022/07/02 10:09:46;;;;;;;2.65;0.55;;;;;;;;;;5033669;28;20238;-83
2022/07/02 10:12:14;;;;;;;1.30;0.60;;;;;;;;;;5035456;28;20211;-82
2022/07/02 10:14:42;;;;;;;1.92;0.75;;;;;;;;;;5035821;28;20239;-83
2022/07/02 10:17:09;;;;;;;0.55;0.50;;;;;;;;;;5035842;28;20211;-83
2022/07/02 10:19:37;;;;;;;0.70;0.70;;;;;;;;;;5035746;28;20238;-83
2022/07/02 10:22:04;;;;;;;0.75;0.60;;;;;;;;;;5038475;28;20206;-82
2022/07/02 10:24:32;;;;;;;0.50;0.50;;;;;;;;;;5036301;28;20261;-83
2022/07/02 10:27:00;;;;;;;1.13;0.68;;;;;;;;;;5037366;28;20211;-82
2022/07/02 10:29:27;;;;;;;1.00;0.50;;;;;;;;;;5035862;28;20698;-82
2022/07/02 10:31:59;;;;;;;1.75;0.60;;;;;;;;;;5037703;28;20214;-82
2022/07/02 10:34:34;;;;;;;0.45;0.45;;;;;;;;;;5037040;28;20246;-82
2022/07/02 10:37:01;;;;;;;0.50;0.50;;;;;;;;;;5037852;28;20221;-82
2022/07/02 10:39:38;;;;;;;0.65;0.38;;;;;;;;;;5037615;28;20235;-82
2022/07/02 10:42:07;;;;;;;1.02;0.60;;;;;;;;;;5037467;28;20256;-82
2022/07/02 10:44:37;;;;;;;0.60;0.60;;;;;;;;;;5038170;28;20257;-82
2022/07/02 10:47:04;;;;;;;0.80;0.80;;;;;;;;;;5038279;28;20261;-82
2022/07/02 10:49:31;;;;;;;0.50;0.35;;;;;;;;;;5036388;28;20246;-82
2022/07/02 10:51:58;;;;;;;0.73;0.43;;;;;;;;;;5038831;28;20256;-81
2022/07/02 10:54:31;;;;;;;0.50;0.50;;;;;;;;;;5038323;28;20243;-82
2022/07/02 10:56:58;;;;;;;1.38;0.88;;;;;;;;;;5039534;28;20210;-82
2022/07/02 10:59:27;;;;;;;1.10;0.70;;;;;;;;;;5038131;28;20242;-82
2022/07/02 11:02:05;;;;;;;0.43;0.40;;;;;;;;;;5054832;28;20206;-83
2022/07/02 11:04:32;;;;;;;0.40;0.40;;;;;;;;;;5055600;28;20724;-82
2022/07/02 11:07:06;;;;;;;1.90;0.50;;;;;;;;;;5057145;28;20209;-82
2022/07/02 11:09:33;;;;;;;0.90;0.43;;;;;;;;;;5057965;28;20239;-81
2022/07/02 11:12:02;;;;;;;1.65;0.55;;;;;;;;;;5058525;28;20202;-82
2022/07/02 11:14:31;;;;;;;0.40;0.40;;;;;;;;;;5056038;28;20238;-82
2022/07/02 11:16:58;;;;;;;1.30;0.70;;;;;;;;;;5056464;28;20202;-82
2022/07/02 11:19:27;;;;;;;2.05;0.75;;;;;;;;;;5055549;28;20304;-82
2022/07/02 11:21:55;;;;;;;0.45;0.35;;;;;;;;;;5053867;28;20210;-83
2022/07/02 11:24:24;;;;;;;0.90;0.60;;;;;;;;;;5053913;28;20234;-82
2022/07/02 11:26:51;;;;;;;0.43;0.43;;;;;;;;;;5054348;28;20210;-82
2022/07/02 11:29:19;;;;;;;0.50;0.50;;;;;;;;;;5056662;28;20241;-82
2022/07/02 11:31:48;;;;;;;0.30;0.30;;;;;;;;;;5058648;28;20256;-82
2022/07/02 11:34:16;;;;;;;1.55;0.70;;;;;;;;;;5059110;28;20241;-80
2022/07/02 11:36:43;;;;;;;0.50;0.50;;;;;;;;;;5057416;28;20260;-81
2022/07/02 11:39:11;;;;;;;3.80;0.60;;;;;;;;;;5054260;28;20245;-81
2022/07/02 11:41:39;;;;;;;0.40;0.40;;;;;;;;;;5054855;28;20217;-81
2022/07/02 11:44:17;;;;;;;0.30;0.30;;;;;;;;;;5054918;28;20229;-81
2022/07/02 11:46:44;;;;;;;0.80;0.40;;;;;;;;;;5055462;28;20209;-81
2022/07/02 11:49:16;;;;;;;0.43;0.40;;;;;;;;;;5055139;28;20744;-81
2022/07/02 11:51:44;;;;;;;0.40;0.40;;;;;;;;;;5054665;28;20209;-81
2022/07/02 11:54:12;;;;;;;1.08;0.47;;;;;;;;;;5053236;28;20238;-82
2022/07/02 11:56:40;;;;;;;1.33;0.32;;;;;;;;;;5053974;28;20643;-82
2022/07/02 11:59:09;;;;;;;0.40;0.40;;;;;;;;;;5053944;28;20233;-82
2022/07/02 12:01:36;;;;;;;0.65;0.50;;;;;;;;;;5039130;28;20609;-82
2022/07/02 12:04:04;;;;;;;0.70;0.70;;;;;;;;;;5033977;28;20709;-81
2022/07/02 12:06:34;;;;;;;0.68;0.40;;;;;;;;;;5033811;28;20206;-82
2022/07/02 12:09:02;;;;;;;0.60;0.38;;;;;;;;;;5033181;28;20773;-81
2022/07/02 12:11:29;;;;;;;0.47;0.47;;;;;;;;;;5034506;28;20210;-82
2022/07/02 12:13:57;;;;;;;0.50;0.38;;;;;;;;;;5036947;28;20241;-82
2022/07/02 12:16:25;;;;;;;0.40;0.38;;;;;;;;;;5045603;28;20229;-82
2022/07/02 12:19:02;;;;;;;0.73;0.50;;;;;;;;;;5035127;28;20702;-82
2022/07/02 12:21:37;;;;;;;0.80;0.60;;;;;;;;;;5035601;28;20214;-81
2022/07/02 12:24:05;;;;;;;1.55;0.73;;;;;;;;;;5031138;28;20284;-81
2022/07/02 12:26:32;;;;;;;0.35;0.35;;;;;;;;;;5041609;28;20211;-83
2022/07/02 12:31:47;;;;;;;0.50;0.50;;;;;;;;;;5034497;28;20278;-81
2022/07/02 12:34:14;;;;;;;0.47;0.47;;;;;;;;;;5033197;28;20246;-81
2022/07/02 12:36:55;;;;;;;0.40;0.40;;;;;;;;;;5033376;28;20667;-81
2022/07/02 12:39:23;;;;;;;2.95;0.40;;;;;;;;;;5033698;28;20245;-81
2022/07/02 12:41:50;;;;;;;0.28;0.28;;;;;;;;;;5033559;28;20655;-81
2022/07/02 12:44:18;;;;;;;0.70;0.55;;;;;;;;;;5032626;28;20230;-82
2022/07/02 12:46:46;;;;;;;0.30;0.30;;;;;;;;;;5033422;28;20202;-82
2022/07/02 12:49:20;;;;;;;0.73;0.50;;;;;;;;;;5032348;28;20764;-82
2022/07/02 12:51:56;;;;;;;0.80;0.55;;;;;;;;;;5033500;28;20700;-81
2022/07/02 12:54:34;;;;;;;1.30;0.30;;;;;;;;;;5033394;28;20234;-81
2022/07/02 12:57:05;;;;;;;0.20;0.20;;;;;;;;;;5043745;28;20462;-82
2022/07/02 12:59:32;;;;;;;0.57;0.50;;;;;;;;;;5047712;28;20242;-82
2022/07/02 13:01:59;;;;;;;0.40;0.30;;;;;;;;;;5033613;28;20626;-83
2022/07/02 13:04:26;;;;;;;0.57;0.47;;;;;;;;;;5032309;28;20233;-82
2022/07/02 13:06:53;;;;;;;0.22;0.22;;;;;;;;;;5032176;28;20292;-82
2022/07/02 13:09:22;;;;;;;0.60;0.28;;;;;;;;;;5033018;28;20251;-82
2022/07/02 13:11:49;;;;;;;0.57;0.38;;;;;;;;;;5032432;28;20261;-82
2022/07/02 13:14:16;;;;;;;0.55;0.40;;;;;;;;;;5031341;28;20237;-82
2022/07/02 13:16:43;;;;;;;0.28;0.28;;;;;;;;;;5032507;28;20211;-82
2022/07/02 13:19:10;;;;;;;0.30;0.30;;;;;;;;;;5032557;28;20238;-81
2022/07/02 13:21:37;;;;;;;1.20;1.15;;;;;;;;;;5033493;28;20213;-82
2022/07/02 13:24:04;;;;;;;0.80;0.80;;;;;;;;;;5033478;28;20234;-81
2022/07/02 13:26:33;;;;;;;0.52;0.52;;;;;;;;;;5032447;28;20199;-82
2022/07/02 13:29:00;;;;;;;0.90;0.32;;;;;;;;;;5032646;28;20238;-82
2022/07/02 13:31:27;;;;;;;1.33;0.47;;;;;;;;;;5032768;28;20206;-81
2022/07/02 13:33:54;;;;;;;1.08;0.38;;;;;;;;;;5033165;28;20241;-82
2022/07/02 13:36:21;;;;;;;0.60;0.60;;;;;;;;;;5033374;28;20586;-83
2022/07/02 13:38:48;;;;;;;0.43;0.40;;;;;;;;;;5031930;28;20241;-82
2022/07/02 13:41:15;;;;;;;0.30;0.30;;;;;;;;;;5033286;28;20207;-81
2022/07/02 13:43:44;;;;;;;0.68;0.65;;;;;;;;;;5032208;28;20239;-81
2022/07/02 13:46:11;;;;;;;0.75;0.40;;;;;;;;;;5036009;28;20693;-81
2022/07/02 13:48:38;;;;;;;0.95;0.55;;;;;;;;;;5035370;28;20601;-82
2022/07/02 13:51:05;;;;;;;0.77;0.50;;;;;;;;;;5036593;28;20211;-82
2022/07/02 13:53:32;;;;;;;0.52;0.40;;;;;;;;;;5034975;28;20237;-82
2022/07/02 13:55:59;;;;;;;0.28;0.28;;;;;;;;;;5035475;28;20222;-82
2022/07/02 13:58:26;;;;;;;0.40;0.40;;;;;;;;;;5035394;28;20226;-82
2022/07/02 14:00:54;;;;;;;0.50;0.50;;;;;;;;;;5046292;28;20583;-82
2022/07/02 14:03:21;;;;;;;0.70;0.70;;;;;;;;;;5055549;28;20206;-81
2022/07/02 14:05:48;;;;;;;1.67;1.58;;;;;;;;;;5056899;28;20206;-81
2022/07/02 14:08:17;;;;;;;1.02;0.52;;;;;;;;;;5056017;28;20562;-81
2022/07/02 14:10:44;;;;;;;0.90;0.40;;;;;;;;;;5055932;28;20246;-81
2022/07/02 14:13:11;;;;;;;0.88;0.40;;;;;;;;;;5056135;28;20213;-81
2022/07/02 14:15:39;;;;;;;0.95;0.65;;;;;;;;;;5056503;28;20650;-82
2022/07/02 14:18:07;;;;;;;1.55;1.20;;;;;;;;;;5055458;28;20257;-82
2022/07/02 14:20:34;;;;;;;0.90;0.80;;;;;;;;;;5058462;28;20229;-81
2022/07/02 14:23:01;;;;;;;0.55;0.45;;;;;;;;;;5070205;28;20210;-82
2022/07/02 14:25:28;;;;;;;0.68;0.57;;;;;;;;;;5070312;28;20229;-81
2022/07/02 14:27:55;;;;;;;0.60;0.60;;;;;;;;;;5070454;28;20226;-81
2022/07/02 14:30:22;;;;;;;0.80;0.47;;;;;;;;;;5069542;28;20236;-81
2022/07/02 14:32:50;;;;;;;3.72;0.57;;;;;;;;;;5057545;28;20210;-82
2022/07/02 14:35:18;;;;;;;0.80;0.80;;;;;;;;;;5054646;28;20321;-82
2022/07/02 14:37:45;;;;;;;1.65;0.75;;;;;;;;;;5055137;28;20722;-82
2022/07/02 14:40:13;;;;;;;0.40;0.40;;;;;;;;;;5054912;28;20234;-82
2022/07/02 14:42:40;;;;;;;0.55;0.47;;;;;;;;;;5055302;28;20260;-82
2022/07/02 14:45:07;;;;;;;0.70;0.40;;;;;;;;;;5054772;28;20229;-82
2022/07/02 14:47:34;;;;;;;0.50;0.50;;;;;;;;;;5055534;28;20209;-82
2022/07/02 14:50:01;;;;;;;0.38;0.32;;;;;;;;;;5054777;28;20229;-81
2022/07/02 14:52:30;;;;;;;2.08;0.52;;;;;;;;;;5054944;28;20213;-82
2022/07/02 14:54:57;;;;;;;1.00;0.60;;;;;;;;;;5054589;28;20242;-82